createdAt,value
2023-04-22T00:02:02.825Z,9.62
2023-04-22T00:04:29.965Z,9.68
2023-04-22T00:06:56.686Z,9.76
2023-04-22T00:09:23.965Z,9.65
2023-04-22T00:11:51.844Z,9.68
2023-04-22T00:14:18.890Z,9.72
2023-04-22T00:16:45.480Z,9.67
2023-04-22T00:19:12.625Z,9.68
2023-04-22T00:21:39.114Z,9.55
2023-04-22T00:24:05.789Z,9.44
2023-04-22T00:26:32.280Z,9.36
2023-04-22T00:28:58.725Z,9.32
2023-04-22T00:31:25.301Z,9.32
2023-04-22T00:33:52.136Z,9.29
2023-04-22T00:36:18.611Z,9.35
2023-04-22T00:38:48.978Z,9.22
2023-04-22T00:41:15.509Z,9.05
2023-04-22T00:43:41.984Z,8.95
2023-04-22T00:46:09.271Z,8.94
2023-04-22T00:48:39.299Z,8.84
2023-04-22T00:51:06.387Z,8.79
2023-04-22T00:53:33.737Z,8.78
2023-04-22T00:56:00.216Z,8.88
2023-04-22T00:58:29.567Z,8.85
2023-04-22T01:00:56.626Z,8.85
2023-04-22T01:03:24.032Z,8.85
2023-04-22T01:05:51.053Z,8.84
2023-04-22T01:08:17.620Z,8.82
2023-04-22T01:10:44.065Z,8.89
2023-04-22T01:13:10.555Z,8.87
2023-04-22T01:15:37.551Z,8.86
2023-04-22T01:18:04.673Z,8.76
2023-04-22T01:20:31.188Z,8.68
2023-04-22T01:23:02.257Z,8.63
2023-04-22T01:25:29.145Z,8.63
2023-04-22T01:27:56.947Z,8.71
2023-04-22T01:30:23.474Z,8.76
2023-04-22T01:32:50.328Z,8.77
2023-04-22T01:35:16.824Z,8.67
2023-04-22T01:37:43.310Z,8.68
2023-04-22T01:40:11.282Z,8.73
2023-04-22T01:42:38.548Z,8.64
2023-04-22T01:45:05.636Z,8.54
2023-04-22T01:47:32.100Z,8.46
2023-04-22T01:49:58.792Z,8.47
2023-04-22T01:52:27.110Z,8.47
2023-04-22T01:54:54.182Z,8.51
2023-04-22T01:57:20.637Z,8.45
2023-04-22T01:59:47.130Z,8.40
2023-04-22T02:02:13.601Z,8.42
2023-04-22T02:04:40.290Z,8.37
2023-04-22T02:07:06.809Z,8.37
2023-04-22T02:09:33.677Z,8.41
2023-04-22T02:12:01.323Z,8.39
2023-04-22T02:14:27.887Z,8.26
2023-04-22T02:16:54.394Z,8.34
2023-04-22T02:19:20.958Z,8.41
2023-04-22T02:21:47.445Z,8.37
2023-04-22T02:24:13.884Z,8.28
2023-04-22T02:26:41.489Z,8.28
2023-04-22T02:29:07.987Z,8.28
2023-04-22T02:31:34.499Z,8.26
2023-04-22T02:34:01.013Z,8.18
2023-04-22T02:36:28.664Z,8.16
2023-04-22T02:38:55.241Z,8.17
2023-04-22T02:41:21.778Z,8.24
2023-04-22T02:43:48.219Z,8.23
2023-04-22T02:46:16.214Z,8.30
2023-04-22T02:48:43.562Z,8.32
2023-04-22T02:51:10.507Z,8.30
2023-04-22T02:53:37.021Z,8.33
2023-04-22T02:56:04.112Z,8.37
2023-04-22T02:58:30.569Z,8.32
2023-04-22T03:00:58.030Z,8.18
2023-04-22T03:03:24.712Z,8.06
2023-04-22T03:05:51.334Z,8.08
2023-04-22T03:08:17.810Z,8.11
2023-04-22T03:10:44.327Z,8.05
2023-04-22T03:13:10.765Z,7.85
2023-04-22T03:15:37.222Z,7.78
2023-04-22T03:18:03.845Z,7.80
2023-04-22T03:20:30.487Z,7.89
2023-04-22T03:22:56.902Z,7.94
2023-04-22T03:25:23.385Z,7.91
2023-04-22T03:27:49.885Z,7.90
2023-04-22T03:30:16.418Z,7.94
2023-04-22T03:32:42.931Z,7.97
2023-04-22T03:35:09.629Z,8.00
2023-04-22T03:37:36.093Z,7.94
2023-04-22T03:40:02.584Z,7.90
2023-04-22T03:42:29.056Z,8.03
2023-04-22T03:44:55.644Z,8.04
2023-04-22T03:47:22.225Z,8.07
2023-04-22T03:49:48.824Z,8.10
2023-04-22T03:52:15.311Z,8.11
2023-04-22T03:54:41.821Z,8.09
2023-04-22T03:57:08.262Z,8.11
2023-04-22T03:59:34.748Z,8.18
2023-04-22T04:02:01.235Z,8.21
2023-04-22T04:04:29.466Z,8.21
2023-04-22T04:06:56.591Z,8.30
2023-04-22T04:09:23.143Z,8.34
2023-04-22T04:11:49.630Z,8.35
2023-04-22T04:14:16.101Z,8.34
2023-04-22T04:16:42.661Z,8.31
2023-04-22T04:19:09.211Z,8.31
2023-04-22T04:21:36.301Z,8.27
2023-04-22T04:24:03.575Z,8.18
2023-04-22T04:26:30.055Z,8.24
2023-04-22T04:28:56.593Z,8.24
2023-04-22T04:31:24.681Z,8.26
2023-04-22T04:33:52.408Z,8.29
2023-04-22T04:36:19.773Z,8.34
2023-04-22T04:38:47.728Z,8.36
2023-04-22T04:41:14.445Z,8.40
2023-04-22T04:43:40.908Z,8.37
2023-04-22T04:46:08.383Z,8.36
2023-04-22T04:48:36.266Z,8.33
2023-04-22T04:51:04.452Z,8.38
2023-04-22T04:53:30.943Z,8.40
2023-04-22T04:55:57.697Z,8.40
2023-04-22T04:58:24.229Z,8.38
2023-04-22T05:00:51.172Z,8.44
2023-04-22T05:03:17.746Z,8.48
2023-04-22T05:05:46.291Z,8.45
2023-04-22T05:08:12.765Z,8.50
2023-04-22T05:10:39.292Z,8.61
2023-04-22T05:13:05.853Z,8.67
2023-04-22T05:15:32.478Z,8.71
2023-04-22T05:17:59.047Z,8.69
2023-04-22T05:20:25.644Z,8.67
2023-04-22T05:22:52.104Z,8.70
2023-04-22T05:25:18.687Z,8.73
2023-04-22T05:27:45.206Z,8.73
2023-04-22T05:30:11.979Z,8.74
2023-04-22T05:32:38.506Z,8.73
2023-04-22T05:35:06.019Z,8.80
2023-04-22T05:37:32.612Z,8.80
2023-04-22T05:39:59.124Z,8.82
2023-04-22T05:42:25.554Z,8.88
2023-04-22T05:44:52.022Z,8.96
2023-04-22T05:47:18.538Z,9.04
2023-04-22T05:49:44.972Z,9.06
2023-04-22T05:52:11.458Z,9.09
2023-04-22T05:54:37.975Z,9.11
2023-04-22T05:57:04.587Z,9.17
2023-04-22T05:59:31.123Z,9.22
2023-04-22T06:01:57.614Z,9.25
2023-04-22T06:04:24.416Z,9.32
2023-04-22T06:06:53.861Z,9.35
2023-04-22T06:09:21.428Z,9.41
2023-04-22T06:11:48.266Z,9.48
2023-04-22T06:14:14.794Z,9.55
2023-04-22T06:16:41.527Z,9.60
2023-04-22T06:19:08.130Z,9.72
2023-04-22T06:21:36.901Z,9.78
2023-04-22T06:24:05.276Z,9.93
2023-04-22T06:26:31.931Z,10.08
2023-04-22T06:28:58.379Z,10.21
2023-04-22T06:31:24.921Z,10.44
2023-04-22T06:33:51.409Z,10.62
2023-04-22T06:36:17.915Z,10.75
2023-04-22T06:38:44.391Z,10.94
2023-04-22T06:41:10.831Z,11.09
2023-04-22T06:43:37.310Z,11.22
2023-04-22T06:46:03.970Z,11.36
2023-04-22T06:48:30.512Z,11.44
2023-04-22T06:50:57.443Z,11.54
2023-04-22T06:53:23.929Z,11.54
2023-04-22T06:55:50.365Z,11.68
2023-04-22T06:58:16.975Z,11.77
2023-04-22T07:00:43.516Z,11.90
2023-04-22T07:03:10.001Z,12.03
2023-04-22T07:05:37.910Z,12.17
2023-04-22T07:08:06.208Z,12.34
2023-04-22T07:10:32.708Z,12.46
2023-04-22T07:12:59.237Z,12.53
2023-04-22T07:15:25.720Z,12.64
2023-04-22T07:17:52.329Z,12.81
2023-04-22T07:20:18.887Z,12.86
2023-04-22T07:22:45.458Z,12.85
2023-04-22T07:25:11.935Z,12.82
2023-04-22T07:27:38.648Z,12.78
2023-04-22T07:30:07.517Z,12.91
2023-04-22T07:32:34.049Z,13.11
2023-04-22T07:35:00.814Z,13.18
2023-04-22T07:37:27.339Z,13.18
2023-04-22T07:39:53.790Z,13.10
2023-04-22T07:42:20.611Z,13.09
2023-04-22T07:44:47.091Z,13.29
2023-04-22T07:47:13.570Z,13.51
2023-04-22T07:49:40.261Z,13.61
2023-04-22T07:52:06.944Z,13.70
2023-04-22T07:54:33.419Z,13.76
2023-04-22T07:56:59.894Z,13.93
2023-04-22T07:59:26.470Z,14.04
2023-04-22T08:01:53.157Z,13.98
2023-04-22T08:06:49.381Z,14.25
2023-04-22T08:09:15.860Z,14.38
2023-04-22T08:11:42.339Z,14.42
2023-04-22T08:14:08.859Z,14.44
2023-04-22T08:16:35.424Z,14.63
2023-04-22T08:19:01.835Z,14.84
2023-04-22T08:21:28.402Z,14.95
2023-04-22T08:23:55.087Z,14.92
2023-04-22T08:26:21.582Z,14.74
2023-04-22T08:28:48.260Z,14.71
2023-04-22T08:31:14.779Z,14.88
2023-04-22T08:33:41.794Z,15.11
2023-04-22T08:36:09.517Z,15.25
2023-04-22T08:38:36.006Z,15.43
2023-04-22T08:41:05.744Z,15.43
2023-04-22T08:43:32.938Z,15.46
2023-04-22T08:45:59.445Z,15.73
2023-04-22T08:48:26.531Z,15.90
2023-04-22T08:50:53.786Z,15.97
2023-04-22T08:53:23.768Z,16.15
2023-04-22T08:55:51.950Z,16.25
2023-04-22T08:58:18.553Z,16.33
2023-04-22T09:00:45.592Z,16.35
2023-04-22T09:03:12.621Z,16.42
2023-04-22T09:05:40.924Z,16.68
2023-04-22T09:08:08.105Z,16.73
2023-04-22T09:10:38.083Z,16.67
2023-04-22T09:13:06.251Z,16.83
2023-04-22T09:15:33.482Z,17.11
2023-04-22T09:18:00.051Z,17.22
2023-04-22T09:20:29.026Z,17.32
2023-04-22T09:22:57.128Z,17.43
2023-04-22T09:25:26.584Z,17.74
2023-04-22T09:27:55.311Z,17.89
2023-04-22T09:30:28.040Z,17.88
2023-04-22T09:32:56.588Z,17.81
2023-04-22T09:35:26.996Z,17.86
2023-04-22T09:37:53.740Z,18.05
2023-04-22T09:40:20.278Z,17.98
2023-04-22T09:42:55.327Z,17.96
2023-04-22T09:45:35.970Z,18.02
2023-04-22T09:48:13.614Z,18.22
2023-04-22T09:50:43.926Z,18.34
2023-04-22T09:53:12.497Z,18.51
2023-04-22T09:55:42.034Z,18.81
2023-04-22T09:58:16.977Z,18.67
2023-04-22T10:00:47.812Z,18.56
2023-04-22T10:03:15.478Z,18.71
2023-04-22T10:05:42.512Z,18.91
2023-04-22T10:08:10.331Z,19.13
2023-04-22T10:10:37.882Z,19.08
2023-04-22T10:13:05.611Z,19.04
2023-04-22T10:15:34.918Z,19.04
2023-04-22T10:18:04.595Z,19.29
2023-04-22T10:20:35.569Z,19.28
2023-04-22T10:23:04.859Z,19.15
2023-04-22T10:25:31.661Z,18.84
2023-04-22T10:28:05.285Z,18.63
2023-04-22T10:30:34.085Z,18.53
2023-04-22T10:33:27.472Z,18.60
2023-04-22T10:36:18.210Z,18.59
2023-04-22T10:38:50.851Z,18.59
2023-04-22T10:41:23.599Z,18.90
2023-04-22T10:43:58.597Z,19.11
2023-04-22T10:46:52.140Z,19.27
2023-04-22T10:49:23.794Z,19.41
2023-04-22T10:51:52.762Z,19.58
2023-04-22T10:54:31.472Z,19.60
2023-04-22T10:57:19.242Z,19.43
2023-04-22T10:59:49.993Z,19.32
2023-04-22T11:02:18.061Z,19.23
2023-04-22T11:04:45.139Z,18.94
2023-04-22T11:07:16.902Z,18.87
2023-04-22T11:09:46.104Z,18.77
2023-04-22T11:12:41.804Z,18.67
2023-04-22T11:15:09.395Z,18.59
2023-04-22T11:17:37.702Z,18.67
2023-04-22T11:20:05.810Z,18.61
2023-04-22T11:22:36.625Z,18.42
2023-04-22T11:25:04.387Z,18.26
2023-04-22T11:27:31.138Z,18.10
2023-04-22T11:30:11.869Z,17.83
2023-04-22T11:32:41.187Z,17.67
2023-04-22T11:35:10.517Z,17.55
2023-04-22T11:37:41.757Z,17.39
2023-04-22T11:40:30.991Z,17.31
2023-04-22T11:43:00.228Z,17.22
2023-04-22T11:45:28.042Z,17.06
2023-04-22T11:47:55.281Z,16.83
2023-04-22T11:50:27.423Z,16.68
2023-04-22T11:52:59.250Z,16.52
2023-04-22T11:55:34.773Z,16.36
2023-04-22T11:58:15.412Z,16.06
2023-04-22T12:00:43.586Z,15.85
2023-04-22T12:03:27.304Z,15.67
2023-04-22T12:05:59.132Z,15.59
2023-04-22T12:08:31.510Z,15.46
2023-04-22T12:11:00.792Z,15.41
2023-04-22T12:13:37.913Z,15.38
2023-04-22T12:16:13.132Z,15.32
2023-04-22T12:18:41.966Z,15.27
2023-04-22T12:21:12.865Z,15.21
2023-04-22T12:23:47.973Z,15.09
2023-04-22T12:26:16.093Z,15.00
2023-04-22T12:28:43.846Z,14.90
2023-04-22T12:31:11.150Z,14.91
2023-04-22T12:33:38.731Z,14.88
2023-04-22T12:36:06.094Z,14.87
2023-04-22T12:38:32.869Z,14.81
2023-04-22T12:40:59.693Z,14.70
2023-04-22T12:43:26.287Z,14.59
2023-04-22T12:45:52.910Z,14.51
2023-04-22T12:48:19.508Z,14.37
2023-04-22T12:50:46.417Z,14.29
2023-04-22T12:53:12.921Z,14.22
2023-04-22T12:55:39.814Z,14.18
2023-04-22T12:58:06.377Z,14.14
2023-04-22T13:00:33.350Z,14.10
2023-04-22T13:03:00.050Z,14.15
2023-04-22T13:05:26.702Z,14.21
2023-04-22T13:08:03.445Z,14.23
2023-04-22T13:10:33.583Z,14.21
2023-04-22T13:13:15.431Z,14.22
2023-04-22T13:15:43.221Z,14.16
2023-04-22T13:18:09.810Z,14.11
2023-04-22T13:20:36.727Z,14.03
2023-04-22T13:23:04.809Z,13.91
2023-04-22T13:25:31.677Z,13.83
2023-04-22T13:27:58.196Z,13.87
2023-04-22T13:30:24.695Z,13.79
2023-04-22T13:32:52.032Z,13.82
2023-04-22T13:35:18.717Z,13.86
2023-04-22T13:37:46.296Z,13.93
2023-04-22T13:40:12.991Z,13.92
2023-04-22T13:42:39.592Z,13.89
2023-04-22T13:45:07.110Z,13.87
2023-04-22T13:47:33.630Z,13.82
2023-04-22T13:50:01.867Z,13.82
2023-04-22T13:52:29.006Z,13.76
2023-04-22T13:54:55.627Z,13.77
2023-04-22T13:57:23.255Z,13.73
2023-04-22T13:59:50.474Z,13.77
2023-04-22T14:02:17.385Z,13.80
2023-04-22T14:04:43.961Z,13.83
2023-04-22T14:07:11.157Z,13.85
2023-04-22T14:09:38.030Z,13.86
2023-04-22T14:12:06.756Z,13.89
2023-04-22T14:14:33.296Z,13.82
2023-04-22T14:16:59.965Z,13.80
2023-04-22T14:19:28.894Z,13.82
2023-04-22T14:21:55.642Z,13.81
2023-04-22T14:24:23.436Z,13.86
2023-04-22T14:26:52.008Z,13.89
2023-04-22T14:29:18.634Z,13.95
2023-04-22T14:31:45.207Z,14.00
2023-04-22T14:34:11.825Z,14.09
2023-04-22T14:36:38.352Z,14.05
2023-04-22T14:39:04.985Z,13.98
2023-04-22T14:41:31.630Z,13.97
2023-04-22T14:43:58.193Z,13.86
2023-04-22T14:46:24.784Z,13.79
2023-04-22T14:48:51.429Z,13.81
2023-04-22T14:51:17.898Z,13.76
2023-04-22T14:53:44.500Z,13.72
2023-04-22T14:56:12.030Z,13.73
2023-04-22T14:58:38.756Z,13.75
2023-04-22T15:01:07.381Z,13.72
2023-04-22T15:03:35.830Z,13.71
2023-04-22T15:06:03.034Z,13.66
2023-04-22T15:08:29.555Z,13.65
2023-04-22T15:10:57.007Z,13.58
2023-04-22T15:13:23.602Z,13.51
2023-04-22T15:15:50.393Z,13.53
2023-04-22T15:18:17.012Z,13.46
2023-04-22T15:20:43.508Z,13.46
2023-04-22T15:23:10.077Z,13.43
2023-04-22T15:25:36.764Z,13.35
2023-04-22T15:28:03.382Z,13.35
2023-04-22T15:30:29.970Z,13.31
2023-04-22T15:32:56.693Z,13.31
2023-04-22T15:35:24.232Z,13.31
2023-04-22T15:37:50.912Z,13.28
2023-04-22T15:40:17.518Z,13.24
2023-04-22T15:42:44.001Z,13.20
2023-04-22T15:45:11.003Z,13.16
2023-04-22T15:47:37.561Z,13.15
2023-04-22T15:50:08.938Z,13.03
2023-04-22T15:52:37.389Z,13.00
2023-04-22T15:55:05.004Z,12.86
2023-04-22T15:57:34.521Z,12.73
2023-04-22T16:00:11.732Z,12.61
2023-04-22T16:02:40.960Z,12.50
2023-04-22T16:05:08.395Z,12.44
2023-04-22T16:07:35.241Z,12.38
2023-04-22T16:10:02.486Z,12.34
2023-04-22T16:12:29.604Z,12.29
2023-04-22T16:14:56.576Z,12.27
2023-04-22T16:17:23.175Z,12.25
2023-04-22T16:19:49.712Z,12.28
2023-04-22T16:22:16.302Z,12.26
2023-04-22T16:24:44.396Z,12.23
2023-04-22T16:27:16.304Z,12.25
2023-04-22T16:29:43.488Z,12.23
2023-04-22T16:32:10.290Z,12.19
2023-04-22T16:34:38.065Z,12.12
2023-04-22T16:37:04.700Z,12.02
2023-04-22T16:39:31.179Z,11.96
2023-04-22T16:41:57.766Z,11.89
2023-04-22T16:44:24.273Z,11.78
2023-04-22T16:46:50.975Z,11.70
2023-04-22T16:49:17.402Z,11.56
2023-04-22T16:51:43.884Z,11.47
2023-04-22T16:54:10.644Z,11.44
2023-04-22T16:56:37.733Z,11.47
2023-04-22T16:59:04.255Z,11.34
2023-04-22T17:01:31.282Z,11.28
2023-04-22T17:03:57.988Z,11.31
2023-04-22T17:06:24.900Z,11.39
2023-04-22T17:08:52.506Z,11.40
2023-04-22T17:11:19.241Z,11.38
2023-04-22T17:13:45.870Z,11.29
2023-04-22T17:16:12.477Z,11.29
2023-04-22T17:18:39.019Z,11.38
2023-04-22T17:21:05.555Z,11.35
2023-04-22T17:23:32.071Z,11.37
2023-04-22T17:25:59.473Z,11.51
2023-04-22T17:28:26.420Z,11.58
2023-04-22T17:30:53.142Z,11.55
2023-04-22T17:33:19.722Z,11.52
2023-04-22T17:35:46.148Z,11.45
2023-04-22T17:38:14.079Z,11.46
2023-04-22T17:40:40.683Z,11.58
2023-04-22T17:43:07.228Z,11.55
2023-04-22T17:45:33.770Z,11.50
2023-04-22T17:48:00.386Z,11.48
2023-04-22T17:50:27.001Z,11.44
2023-04-22T17:52:53.800Z,11.44
2023-04-22T17:55:20.608Z,11.42
2023-04-22T17:57:47.132Z,11.32
2023-04-22T18:00:18.112Z,11.25
2023-04-22T18:02:44.811Z,11.23
2023-04-22T18:05:11.841Z,11.26
2023-04-22T18:07:38.368Z,11.26
2023-04-22T18:10:05.339Z,11.14
2023-04-22T18:12:32.014Z,11.17
2023-04-22T18:14:58.533Z,11.13
2023-04-22T18:17:25.150Z,11.11
2023-04-22T18:19:54.360Z,11.12
2023-04-22T18:22:25.551Z,11.17
2023-04-22T18:24:52.308Z,11.17
2023-04-22T18:27:18.796Z,11.20
2023-04-22T18:29:46.835Z,11.23
2023-04-22T18:32:13.867Z,11.23
2023-04-22T18:34:41.013Z,11.19
2023-04-22T18:37:07.736Z,11.20
2023-04-22T18:39:34.182Z,11.22
2023-04-22T18:42:02.261Z,11.19
2023-04-22T18:44:28.786Z,11.15
2023-04-22T18:46:55.285Z,11.13
2023-04-22T18:49:21.916Z,11.07
2023-04-22T18:51:49.299Z,11.09
2023-04-22T18:54:16.185Z,11.09
2023-04-22T18:56:42.889Z,11.02
2023-04-22T18:59:09.540Z,10.85
2023-04-22T19:01:36.532Z,10.65
2023-04-22T19:04:04.079Z,10.52
2023-04-22T19:06:30.697Z,10.41
2023-04-22T19:08:57.412Z,10.33
2023-04-22T19:11:24.640Z,10.25
2023-04-22T19:13:53.588Z,10.18
2023-04-22T19:16:20.410Z,10.10
2023-04-22T19:18:47.008Z,10.08
2023-04-22T19:21:13.522Z,10.05
2023-04-22T19:23:41.529Z,10.02
2023-04-22T19:26:11.326Z,10.08
2023-04-22T19:28:37.857Z,10.04
2023-04-22T19:31:04.991Z,9.94
2023-04-22T19:33:31.872Z,9.80
2023-04-22T19:35:58.328Z,9.78
2023-04-22T19:38:24.932Z,9.69
2023-04-22T19:40:51.505Z,9.59
2023-04-22T19:43:19.189Z,9.56
2023-04-22T19:45:48.552Z,9.60
2023-04-22T19:48:15.489Z,9.65
2023-04-22T19:50:43.621Z,9.70
2023-04-22T19:53:10.702Z,9.76
2023-04-22T19:55:38.243Z,9.75
2023-04-22T19:58:05.495Z,9.75
2023-04-22T20:00:32.163Z,9.75
2023-04-22T20:02:59.299Z,9.71
2023-04-22T20:05:26.869Z,9.74
2023-04-22T20:07:59.919Z,9.71
2023-04-22T20:10:27.389Z,9.62
2023-04-22T20:12:54.121Z,9.50
2023-04-22T20:15:20.901Z,9.42
2023-04-22T20:17:47.601Z,9.44
2023-04-22T20:20:17.657Z,9.48
2023-04-22T20:22:46.280Z,9.44
2023-04-22T20:25:19.797Z,9.36
2023-04-22T20:27:46.928Z,9.34
2023-04-22T20:30:14.284Z,9.29
2023-04-22T20:32:41.776Z,9.32
2023-04-22T20:35:11.993Z,9.35
2023-04-22T20:37:39.678Z,9.39
2023-04-22T20:40:09.438Z,9.40
2023-04-22T20:42:36.964Z,9.42
2023-04-22T20:45:07.171Z,9.43
2023-04-22T20:47:33.794Z,9.43
2023-04-22T20:50:00.724Z,9.42
2023-04-22T20:52:27.520Z,9.41
2023-04-22T20:54:56.709Z,9.46
2023-04-22T20:57:23.718Z,9.46
2023-04-22T20:59:50.328Z,9.46
2023-04-22T21:02:18.169Z,9.49
2023-04-22T21:04:45.135Z,9.45
2023-04-22T21:07:11.967Z,9.39
2023-04-22T21:09:38.724Z,9.37
2023-04-22T21:12:05.935Z,9.34
2023-04-22T21:14:32.939Z,9.33
2023-04-22T21:17:18.592Z,9.30
2023-04-22T21:19:50.680Z,9.31
2023-04-22T21:22:20.767Z,9.27
2023-04-22T21:24:49.493Z,9.26
2023-04-22T21:27:21.310Z,9.29
2023-04-22T21:29:48.627Z,9.27
2023-04-22T21:32:15.818Z,9.30
2023-04-22T21:34:45.309Z,9.31
2023-04-22T21:37:13.230Z,9.30
2023-04-22T21:39:40.705Z,9.31
2023-04-22T21:42:10.529Z,9.24
2023-04-22T21:44:38.224Z,9.19
2023-04-22T21:47:05.729Z,9.12
2023-04-22T21:49:32.368Z,9.08
2023-04-22T21:51:59.423Z,9.12
2023-04-22T21:54:25.928Z,9.20
2023-04-22T21:56:52.556Z,9.30
2023-04-22T21:59:19.069Z,9.24
2023-04-22T22:01:46.325Z,9.19
2023-04-22T22:04:15.701Z,9.15
2023-04-22T22:06:44.933Z,9.04
2023-04-22T22:09:12.052Z,9.05
2023-04-22T22:11:38.521Z,9.19
2023-04-22T22:14:05.129Z,9.28
2023-04-22T22:16:31.776Z,9.23
2023-04-22T22:18:58.422Z,9.21
2023-04-22T22:21:24.973Z,9.16
2023-04-22T22:23:51.858Z,9.22
2023-04-22T22:26:18.460Z,9.27
2023-04-22T22:28:44.919Z,9.31
2023-04-22T22:31:11.442Z,9.30
2023-04-22T22:33:37.959Z,9.28
2023-04-22T22:36:04.499Z,9.33
2023-04-22T22:38:30.982Z,9.29
2023-04-22T22:40:57.591Z,9.38
2023-04-22T22:43:24.062Z,9.45
2023-04-22T22:45:50.654Z,9.46
2023-04-22T22:48:17.214Z,9.46
2023-04-22T22:50:43.894Z,9.36
2023-04-22T22:53:10.459Z,9.30
2023-04-22T22:55:36.998Z,9.28
2023-04-22T22:58:03.617Z,9.29
2023-04-22T23:00:30.688Z,9.26
2023-04-22T23:02:57.365Z,9.21
2023-04-22T23:05:23.955Z,9.17
2023-04-22T23:07:50.476Z,9.15
2023-04-22T23:10:16.944Z,9.22
2023-04-22T23:12:43.466Z,9.21
2023-04-22T23:15:10.399Z,9.22
2023-04-22T23:17:37.905Z,9.22
2023-04-22T23:20:04.986Z,9.17
2023-04-22T23:22:32.906Z,9.15
2023-04-22T23:24:59.625Z,9.16
2023-04-22T23:27:26.645Z,9.15
2023-04-22T23:29:53.535Z,9.08
2023-04-22T23:32:21.323Z,9.11
2023-04-22T23:34:50.363Z,9.11
2023-04-22T23:37:19.156Z,9.12
2023-04-22T23:39:45.714Z,9.11
2023-04-22T23:42:12.282Z,9.14
2023-04-22T23:44:39.008Z,9.20
2023-04-22T23:47:05.829Z,9.20
2023-04-22T23:49:32.598Z,9.16
2023-04-22T23:51:59.574Z,9.10
2023-04-22T23:54:26.619Z,9.14
2023-04-22T23:56:53.639Z,9.07
2023-04-22T23:59:20.436Z,9.09
